sensor_id;sensor_type;location;lat;lon;timestamp;pressure;altitude;pressure_sealevel;temperature;humidity
62703;BME280;66022;50.448;18.122;2023-04-20T00:02:04;99465.50;;;6.69;100.00
62703;BME280;66022;50.448;18.122;2023-04-20T00:06:18;99463.84;;;6.65;100.00
62703;BME280;66022;50.448;18.122;2023-04-20T00:10:33;99462.66;;;6.65;100.00
62703;BME280;66022;50.448;18.122;2023-04-20T00:14:46;99460.15;;;6.66;100.00
62703;BME280;66022;50.448;18.122;2023-04-20T00:19:00;99458.23;;;6.66;100.00
62703;BME280;66022;50.448;18.122;2023-04-20T00:23:15;99457.47;;;6.68;100.00
62703;BME280;66022;50.448;18.122;2023-04-20T00:27:28;99454.99;;;6.68;100.00
62703;BME280;66022;50.448;18.122;2023-04-20T00:31:42;99451.86;;;6.70;100.00
62703;BME280;66022;50.448;18.122;2023-04-20T00:35:56;99449.55;;;6.69;100.00
62703;BME280;66022;50.448;18.122;2023-04-20T00:40:11;99446.45;;;6.70;100.00
62703;BME280;66022;50.448;18.122;2023-04-20T00:44:24;99445.26;;;6.71;100.00
62703;BME280;66022;50.448;18.122;2023-04-20T00:48:38;99445.61;;;6.71;100.00
62703;BME280;66022;50.448;18.122;2023-04-20T00:52:52;99446.19;;;6.73;100.00
62703;BME280;66022;50.448;18.122;2023-04-20T00:57:06;99444.45;;;6.72;100.00
62703;BME280;66022;50.448;18.122;2023-04-20T01:01:20;99442.11;;;6.74;100.00
62703;BME280;66022;50.448;18.122;2023-04-20T01:05:34;99438.09;;;6.74;100.00
62703;BME280;66022;50.448;18.122;2023-04-20T01:09:48;99434.65;;;6.74;100.00
62703;BME280;66022;50.448;18.122;2023-04-20T01:14:02;99431.98;;;6.74;100.00
62703;BME280;66022;50.448;18.122;2023-04-20T01:18:16;99430.67;;;6.72;100.00
62703;BME280;66022;50.448;18.122;2023-04-20T01:22:30;99429.65;;;6.73;100.00
62703;BME280;66022;50.448;18.122;2023-04-20T01:26:46;99428.49;;;6.73;100.00
62703;BME280;66022;50.448;18.122;2023-04-20T01:31:01;99427.90;;;6.74;100.00
62703;BME280;66022;50.448;18.122;2023-04-20T01:35:12;99427.13;;;6.75;100.00
62703;BME280;66022;50.448;18.122;2023-04-20T01:39:26;99427.14;;;6.76;100.00
62703;BME280;66022;50.448;18.122;2023-04-20T01:43:41;99425.28;;;6.77;100.00
62703;BME280;66022;50.448;18.122;2023-04-20T01:47:54;99422.45;;;6.77;100.00
62703;BME280;66022;50.448;18.122;2023-04-20T01:52:08;99421.51;;;6.79;100.00
62703;BME280;66022;50.448;18.122;2023-04-20T01:56:23;99420.70;;;6.78;100.00
62703;BME280;66022;50.448;18.122;2023-04-20T02:00:39;99419.84;;;6.84;100.00
62703;BME280;66022;50.448;18.122;2023-04-20T02:04:53;99418.72;;;6.90;99.69
62703;BME280;66022;50.448;18.122;2023-04-20T02:09:05;99417.70;;;6.95;100.00
62703;BME280;66022;50.448;18.122;2023-04-20T02:13:18;99416.35;;;6.99;100.00
62703;BME280;66022;50.448;18.122;2023-04-20T02:17:32;99414.40;;;6.99;100.00
62703;BME280;66022;50.448;18.122;2023-04-20T02:21:46;99413.23;;;7.01;100.00
62703;BME280;66022;50.448;18.122;2023-04-20T02:26:00;99414.65;;;7.00;100.00
62703;BME280;66022;50.448;18.122;2023-04-20T02:30:14;99415.42;;;7.00;100.00
62703;BME280;66022;50.448;18.122;2023-04-20T02:34:29;99414.90;;;7.00;100.00
62703;BME280;66022;50.448;18.122;2023-04-20T02:38:43;99413.67;;;6.97;100.00
62703;BME280;66022;50.448;18.122;2023-04-20T02:42:57;99413.60;;;6.95;100.00
62703;BME280;66022;50.448;18.122;2023-04-20T02:47:10;99414.12;;;6.92;100.00
62703;BME280;66022;50.448;18.122;2023-04-20T02:51:25;99415.63;;;6.90;100.00
62703;BME280;66022;50.448;18.122;2023-04-20T02:55:38;99416.96;;;6.89;100.00
62703;BME280;66022;50.448;18.122;2023-04-20T02:59:53;99419.64;;;6.88;100.00
62703;BME280;66022;50.448;18.122;2023-04-20T03:04:07;99422.97;;;6.89;100.00
62703;BME280;66022;50.448;18.122;2023-04-20T03:08:21;99424.66;;;6.87;100.00
62703;BME280;66022;50.448;18.122;2023-04-20T03:12:35;99425.92;;;6.86;100.00
62703;BME280;66022;50.448;18.122;2023-04-20T03:16:49;99428.27;;;6.84;100.00
62703;BME280;66022;50.448;18.122;2023-04-20T03:21:03;99430.45;;;6.83;100.00
62703;BME280;66022;50.448;18.122;2023-04-20T03:25:17;99432.36;;;6.83;100.00
62703;BME280;66022;50.448;18.122;2023-04-20T03:29:31;99434.88;;;6.82;100.00
62703;BME280;66022;50.448;18.122;2023-04-20T03:33:44;99437.97;;;6.82;100.00
62703;BME280;66022;50.448;18.122;2023-04-20T03:37:59;99440.81;;;6.80;100.00
62703;BME280;66022;50.448;18.122;2023-04-20T03:42:13;99442.99;;;6.80;100.00
62703;BME280;66022;50.448;18.122;2023-04-20T03:46:27;99445.08;;;6.77;100.00
62703;BME280;66022;50.448;18.122;2023-04-20T03:50:41;99447.27;;;6.76;100.00
62703;BME280;66022;50.448;18.122;2023-04-20T03:54:55;99450.00;;;6.76;100.00
62703;BME280;66022;50.448;18.122;2023-04-20T03:59:11;99451.68;;;6.74;100.00
62703;BME280;66022;50.448;18.122;2023-04-20T04:03:23;99452.96;;;6.74;100.00
62703;BME280;66022;50.448;18.122;2023-04-20T04:07:37;99453.78;;;6.73;100.00
62703;BME280;66022;50.448;18.122;2023-04-20T04:11:51;99455.80;;;6.74;100.00
62703;BME280;66022;50.448;18.122;2023-04-20T04:16:05;99456.79;;;6.71;100.00
62703;BME280;66022;50.448;18.122;2023-04-20T04:20:19;99457.06;;;6.72;100.00
62703;BME280;66022;50.448;18.122;2023-04-20T04:28:47;99461.55;;;6.69;100.00
62703;BME280;66022;50.448;18.122;2023-04-20T04:33:03;99464.08;;;6.68;100.00
62703;BME280;66022;50.448;18.122;2023-04-20T04:37:15;99466.35;;;6.67;100.00
62703;BME280;66022;50.448;18.122;2023-04-20T04:41:29;99468.75;;;6.67;100.00
62703;BME280;66022;50.448;18.122;2023-04-20T04:45:43;99470.93;;;6.68;100.00
62703;BME280;66022;50.448;18.122;2023-04-20T04:49:57;99472.99;;;6.71;100.00
62703;BME280;66022;50.448;18.122;2023-04-20T04:54:11;99476.08;;;6.75;100.00
62703;BME280;66022;50.448;18.122;2023-04-20T04:58:25;99478.91;;;6.75;100.00
62703;BME280;66022;50.448;18.122;2023-04-20T05:02:39;99480.98;;;6.78;100.00
62703;BME280;66022;50.448;18.122;2023-04-20T05:06:53;99482.50;;;6.80;100.00
62703;BME280;66022;50.448;18.122;2023-04-20T05:11:07;99483.74;;;6.83;100.00
62703;BME280;66022;50.448;18.122;2023-04-20T05:15:21;99484.29;;;6.87;100.00
62703;BME280;66022;50.448;18.122;2023-04-20T05:19:35;99484.45;;;6.90;100.00
62703;BME280;66022;50.448;18.122;2023-04-20T05:23:49;99484.52;;;6.94;100.00
62703;BME280;66022;50.448;18.122;2023-04-20T05:28:03;99484.60;;;6.98;100.00
62703;BME280;66022;50.448;18.122;2023-04-20T05:32:17;99484.74;;;7.06;100.00
62703;BME280;66022;50.448;18.122;2023-04-20T05:36:31;99485.52;;;7.11;100.00
62703;BME280;66022;50.448;18.122;2023-04-20T05:40:45;99486.10;;;7.19;100.00
62703;BME280;66022;50.448;18.122;2023-04-20T05:44:59;99487.73;;;7.26;100.00
62703;BME280;66022;50.448;18.122;2023-04-20T05:49:13;99490.36;;;7.32;100.00
62703;BME280;66022;50.448;18.122;2023-04-20T05:53:27;99492.94;;;7.36;100.00
62703;BME280;66022;50.448;18.122;2023-04-20T05:57:41;99494.17;;;7.39;100.00
62703;BME280;66022;50.448;18.122;2023-04-20T06:01:55;99496.33;;;7.42;100.00
62703;BME280;66022;50.448;18.122;2023-04-20T06:06:09;99497.42;;;7.42;100.00
62703;BME280;66022;50.448;18.122;2023-04-20T06:10:23;99498.99;;;7.46;100.00
62703;BME280;66022;50.448;18.122;2023-04-20T06:14:37;99500.64;;;7.49;100.00
62703;BME280;66022;50.448;18.122;2023-04-20T06:18:51;99501.43;;;7.54;100.00
62703;BME280;66022;50.448;18.122;2023-04-20T06:23:05;99503.71;;;7.65;100.00
62703;BME280;66022;50.448;18.122;2023-04-20T06:27:19;99505.24;;;7.76;100.00
62703;BME280;66022;50.448;18.122;2023-04-20T06:31:34;99504.80;;;7.91;99.80
62703;BME280;66022;50.448;18.122;2023-04-20T06:35:49;99508.54;;;8.05;98.79
62703;BME280;66022;50.448;18.122;2023-04-20T06:40:01;99510.88;;;8.24;97.38
62703;BME280;66022;50.448;18.122;2023-04-20T06:44:15;99512.14;;;8.44;96.29
62703;BME280;66022;50.448;18.122;2023-04-20T06:48:29;99513.30;;;8.63;96.11
62703;BME280;66022;50.448;18.122;2023-04-20T06:52:43;99514.20;;;8.88;94.71
62703;BME280;66022;50.448;18.122;2023-04-20T06:56:57;99515.54;;;9.10;96.30
62703;BME280;66022;50.448;18.122;2023-04-20T07:01:11;99516.02;;;9.32;93.98
62703;BME280;66022;50.448;18.122;2023-04-20T07:05:25;99517.31;;;9.54;93.33
62703;BME280;66022;50.448;18.122;2023-04-20T07:09:39;99519.30;;;9.74;92.86
62703;BME280;66022;50.448;18.122;2023-04-20T07:13:53;99521.59;;;9.90;92.04
62703;BME280;66022;50.448;18.122;2023-04-20T07:18:07;99524.27;;;9.96;93.25
62703;BME280;66022;50.448;18.122;2023-04-20T07:22:21;99526.56;;;10.05;92.82
62703;BME280;66022;50.448;18.122;2023-04-20T07:26:35;99528.50;;;10.16;91.22
62703;BME280;66022;50.448;18.122;2023-04-20T07:30:49;99531.05;;;10.34;89.25
62703;BME280;66022;50.448;18.122;2023-04-20T07:35:03;99532.87;;;10.47;88.56
62703;BME280;66022;50.448;18.122;2023-04-20T07:39:17;99534.38;;;10.62;88.16
62703;BME280;66022;50.448;18.122;2023-04-20T07:43:31;99536.06;;;10.79;87.71
62703;BME280;66022;50.448;18.122;2023-04-20T07:47:45;99536.87;;;10.94;88.02
62703;BME280;66022;50.448;18.122;2023-04-20T07:51:59;99537.77;;;11.08;88.61
62703;BME280;66022;50.448;18.122;2023-04-20T07:56:13;99538.09;;;11.23;87.94
62703;BME280;66022;50.448;18.122;2023-04-20T08:00:30;99538.12;;;11.37;86.17
62703;BME280;66022;50.448;18.122;2023-04-20T08:04:41;99539.64;;;11.49;86.55
62703;BME280;66022;50.448;18.122;2023-04-20T08:08:55;99540.53;;;11.58;86.34
62703;BME280;66022;50.448;18.122;2023-04-20T08:13:09;99540.81;;;11.72;87.31
62703;BME280;66022;50.448;18.122;2023-04-20T08:17:24;99540.80;;;11.87;87.24
62703;BME280;66022;50.448;18.122;2023-04-20T08:21:38;99540.77;;;12.05;86.66
62703;BME280;66022;50.448;18.122;2023-04-20T08:25:54;99540.50;;;12.23;85.61
62703;BME280;66022;50.448;18.122;2023-04-20T08:30:06;99541.55;;;12.46;83.14
62703;BME280;66022;50.448;18.122;2023-04-20T08:34:20;99541.92;;;12.67;82.72
62703;BME280;66022;50.448;18.122;2023-04-20T08:38:34;99541.22;;;12.88;82.15
62703;BME280;66022;50.448;18.122;2023-04-20T08:42:48;99540.41;;;13.19;80.58
62703;BME280;66022;50.448;18.122;2023-04-20T08:47:02;99539.83;;;13.44;78.27
62703;BME280;66022;50.448;18.122;2023-04-20T08:51:16;99537.94;;;13.70;79.71
62703;BME280;66022;50.448;18.122;2023-04-20T08:55:30;99535.41;;;13.92;78.65
62703;BME280;66022;50.448;18.122;2023-04-20T08:59:44;99534.55;;;14.06;77.26
62703;BME280;66022;50.448;18.122;2023-04-20T09:03:58;99535.11;;;14.23;75.82
62703;BME280;66022;50.448;18.122;2023-04-20T09:08:12;99534.66;;;14.36;77.17
62703;BME280;66022;50.448;18.122;2023-04-20T09:20:54;99534.94;;;15.07;75.81
62703;BME280;66022;50.448;18.122;2023-04-20T09:29:22;99536.22;;;15.64;70.98
62703;BME280;66022;50.448;18.122;2023-04-20T09:33:36;99535.06;;;15.94;70.38
62703;BME280;66022;50.448;18.122;2023-04-20T09:37:50;99533.91;;;16.15;70.41
62703;BME280;66022;50.448;18.122;2023-04-20T09:42:04;99532.79;;;16.36;70.88
62703;BME280;66022;50.448;18.122;2023-04-20T09:46:18;99530.99;;;16.45;69.52
62703;BME280;66022;50.448;18.122;2023-04-20T09:50:33;99528.99;;;16.60;70.54
62703;BME280;66022;50.448;18.122;2023-04-20T09:54:46;99526.62;;;16.75;73.10
62703;BME280;66022;50.448;18.122;2023-04-20T09:59:00;99526.11;;;16.84;67.74
62703;BME280;66022;50.448;18.122;2023-04-20T10:03:17;99524.81;;;16.88;68.82
62703;BME280;66022;50.448;18.122;2023-04-20T10:07:29;99522.32;;;16.85;71.23
62703;BME280;66022;50.448;18.122;2023-04-20T10:11:42;99519.94;;;16.92;69.11
62703;BME280;66022;50.448;18.122;2023-04-20T10:15:56;99517.15;;;16.91;68.88
62703;BME280;66022;50.448;18.122;2023-04-20T10:20:27;99516.79;;;17.03;67.66
62703;BME280;66022;50.448;18.122;2023-04-20T10:24:30;99515.12;;;17.12;65.19
62703;BME280;66022;50.448;18.122;2023-04-20T10:28:38;99510.03;;;17.13;70.02
62703;BME280;66022;50.448;18.122;2023-04-20T10:37:06;99503.31;;;17.15;68.55
62703;BME280;66022;50.448;18.122;2023-04-20T10:41:20;99499.59;;;17.19;68.42
62703;BME280;66022;50.448;18.122;2023-04-20T10:45:37;99496.37;;;17.25;69.40
62703;BME280;66022;50.448;18.122;2023-04-20T10:49:51;99492.78;;;17.28;69.22
62703;BME280;66022;50.448;18.122;2023-04-20T12:01:56;99438.56;;;16.73;70.28
62703;BME280;66022;50.448;18.122;2023-04-20T12:06:11;99436.66;;;16.68;66.43
62703;BME280;66022;50.448;18.122;2023-04-20T12:10:25;99434.14;;;16.69;67.72
62703;BME280;66022;50.448;18.122;2023-04-20T12:14:38;99432.34;;;16.68;70.79
62703;BME280;66022;50.448;18.122;2023-04-20T12:18:53;99430.49;;;16.62;70.07
62703;BME280;66022;50.448;18.122;2023-04-20T12:23:07;99428.33;;;16.57;69.73
62703;BME280;66022;50.448;18.122;2023-04-20T12:27:21;99424.84;;;16.52;70.53
62703;BME280;66022;50.448;18.122;2023-04-20T12:31:35;99421.51;;;16.50;69.60
62703;BME280;66022;50.448;18.122;2023-04-20T12:35:48;99418.78;;;16.47;67.96
62703;BME280;66022;50.448;18.122;2023-04-20T12:40:03;99417.69;;;16.39;69.43
62703;BME280;66022;50.448;18.122;2023-04-20T12:44:17;99416.88;;;16.30;70.14
62703;BME280;66022;50.448;18.122;2023-04-20T12:48:31;99416.74;;;16.17;68.52
62703;BME280;66022;50.448;18.122;2023-04-20T12:52:45;99415.37;;;16.09;68.07
62703;BME280;66022;50.448;18.122;2023-04-20T12:56:59;99413.73;;;16.02;69.55
62703;BME280;66022;50.448;18.122;2023-04-20T13:01:16;99411.27;;;16.02;70.64
62703;BME280;66022;50.448;18.122;2023-04-20T13:05:27;99408.36;;;16.04;67.56
62703;BME280;66022;50.448;18.122;2023-04-20T13:09:41;99406.25;;;16.04;68.00
62703;BME280;66022;50.448;18.122;2023-04-20T13:13:55;99405.06;;;16.03;68.39
62703;BME280;66022;50.448;18.122;2023-04-20T13:18:09;99402.75;;;15.97;68.37
62703;BME280;66022;50.448;18.122;2023-04-20T13:22:23;99400.25;;;15.98;69.83
62703;BME280;66022;50.448;18.122;2023-04-20T13:26:37;99397.41;;;16.05;68.46
62703;BME280;66022;50.448;18.122;2023-04-20T13:30:52;99393.80;;;16.22;68.41
62703;BME280;66022;50.448;18.122;2023-04-20T13:35:05;99391.40;;;16.36;67.69
62703;BME280;66022;50.448;18.122;2023-04-20T13:39:19;99390.44;;;16.41;67.12
62703;BME280;66022;50.448;18.122;2023-04-20T13:43:33;99389.47;;;16.46;69.00
62703;BME280;66022;50.448;18.122;2023-04-20T13:47:47;99388.62;;;16.46;69.67
62703;BME280;66022;50.448;18.122;2023-04-20T13:52:01;99386.33;;;16.49;69.29
62703;BME280;66022;50.448;18.122;2023-04-20T13:56:15;99385.85;;;16.57;65.79
62703;BME280;66022;50.448;18.122;2023-04-20T14:00:29;99386.69;;;16.66;66.24
62703;BME280;66022;50.448;18.122;2023-04-20T14:04:43;99386.99;;;16.65;66.59
62703;BME280;66022;50.448;18.122;2023-04-20T14:08:57;99387.04;;;16.58;69.59
62703;BME280;66022;50.448;18.122;2023-04-20T14:13:11;99386.60;;;16.57;66.76
62703;BME280;66022;50.448;18.122;2023-04-20T14:17:25;99384.39;;;16.57;69.40
62703;BME280;66022;50.448;18.122;2023-04-20T14:21:39;99382.92;;;16.65;66.89
62703;BME280;66022;50.448;18.122;2023-04-20T14:25:53;99380.91;;;16.74;68.08
62703;BME280;66022;50.448;18.122;2023-04-20T14:30:07;99380.98;;;16.78;68.94
62703;BME280;66022;50.448;18.122;2023-04-20T14:34:21;99379.83;;;16.75;70.39
62703;BME280;66022;50.448;18.122;2023-04-20T14:38:35;99379.22;;;16.65;69.55
62703;BME280;66022;50.448;18.122;2023-04-20T14:42:49;99378.00;;;16.56;71.49
62703;BME280;66022;50.448;18.122;2023-04-20T14:47:03;99375.97;;;16.46;71.21
62703;BME280;66022;50.448;18.122;2023-04-20T14:51:17;99373.92;;;16.44;67.12
62703;BME280;66022;50.448;18.122;2023-04-20T14:55:31;99371.98;;;16.42;70.54
62703;BME280;66022;50.448;18.122;2023-04-20T14:59:45;99371.63;;;16.39;70.75
62703;BME280;66022;50.448;18.122;2023-04-20T15:03:59;99372.66;;;16.33;67.08
62703;BME280;66022;50.448;18.122;2023-04-20T15:08:13;99373.66;;;16.20;67.18
62703;BME280;66022;50.448;18.122;2023-04-20T15:12:27;99374.24;;;16.14;69.73
62703;BME280;66022;50.448;18.122;2023-04-20T15:16:41;99373.83;;;16.09;67.09
62703;BME280;66022;50.448;18.122;2023-04-20T15:20:55;99372.96;;;16.10;69.10
62703;BME280;66022;50.448;18.122;2023-04-20T15:25:09;99373.65;;;16.12;64.93
62703;BME280;66022;50.448;18.122;2023-04-20T15:29:23;99372.88;;;16.12;64.36
62703;BME280;66022;50.448;18.122;2023-04-20T15:33:37;99371.59;;;16.14;68.40
62703;BME280;66022;50.448;18.122;2023-04-20T15:37:51;99371.94;;;16.16;66.48
62703;BME280;66022;50.448;18.122;2023-04-20T15:42:05;99372.63;;;16.18;65.69
62703;BME280;66022;50.448;18.122;2023-04-20T15:46:19;99371.66;;;16.15;65.14
62703;BME280;66022;50.448;18.122;2023-04-20T15:50:33;99370.23;;;16.15;64.23
62703;BME280;66022;50.448;18.122;2023-04-20T15:54:47;99369.41;;;16.12;63.80
62703;BME280;66022;50.448;18.122;2023-04-20T15:59:01;99369.14;;;16.05;62.63
62703;BME280;66022;50.448;18.122;2023-04-20T16:03:15;99368.91;;;16.00;64.58
62703;BME280;66022;50.448;18.122;2023-04-20T16:07:29;99369.28;;;15.93;62.92
62703;BME280;66022;50.448;18.122;2023-04-20T16:11:43;99369.58;;;15.88;63.29
62703;BME280;66022;50.448;18.122;2023-04-20T16:15:57;99369.44;;;15.81;63.02
62703;BME280;66022;50.448;18.122;2023-04-20T16:20:11;99369.48;;;15.76;63.44
62703;BME280;66022;50.448;18.122;2023-04-20T16:24:25;99368.80;;;15.71;63.96
62703;BME280;66022;50.448;18.122;2023-04-20T16:28:39;99369.17;;;15.64;63.10
62703;BME280;66022;50.448;18.122;2023-04-20T16:32:53;99369.31;;;15.61;63.05
62703;BME280;66022;50.448;18.122;2023-04-20T16:37:07;99369.85;;;15.56;61.55
62703;BME280;66022;50.448;18.122;2023-04-20T16:41:21;99370.74;;;15.53;62.92
62703;BME280;66022;50.448;18.122;2023-04-20T16:45:35;99370.64;;;15.49;63.59
62703;BME280;66022;50.448;18.122;2023-04-20T16:49:49;99371.15;;;15.45;64.66
62703;BME280;66022;50.448;18.122;2023-04-20T16:54:03;99371.47;;;15.41;65.58
62703;BME280;66022;50.448;18.122;2023-04-20T16:58:17;99371.95;;;15.35;64.75
62703;BME280;66022;50.448;18.122;2023-04-20T17:02:31;99372.94;;;15.31;66.28
62703;BME280;66022;50.448;18.122;2023-04-20T17:06:45;99373.56;;;15.25;63.53
62703;BME280;66022;50.448;18.122;2023-04-20T17:10:59;99374.89;;;15.21;65.07
62703;BME280;66022;50.448;18.122;2023-04-20T17:15:13;99375.94;;;15.18;66.17
62703;BME280;66022;50.448;18.122;2023-04-20T17:19:29;99377.17;;;15.15;66.76
62703;BME280;66022;50.448;18.122;2023-04-20T17:23:41;99379.13;;;15.15;66.64
62703;BME280;66022;50.448;18.122;2023-04-20T17:27:55;99381.25;;;15.14;65.95
62703;BME280;66022;50.448;18.122;2023-04-20T17:32:09;99384.06;;;15.14;67.24
62703;BME280;66022;50.448;18.122;2023-04-20T17:36:23;99387.64;;;15.09;65.68
62703;BME280;66022;50.448;18.122;2023-04-20T17:40:37;99391.82;;;15.06;66.83
62703;BME280;66022;50.448;18.122;2023-04-20T17:44:51;99394.61;;;15.02;68.41
62703;BME280;66022;50.448;18.122;2023-04-20T17:49:05;99396.23;;;14.94;68.04
62703;BME280;66022;50.448;18.122;2023-04-20T17:53:19;99398.47;;;14.88;68.36
62703;BME280;66022;50.448;18.122;2023-04-20T17:57:33;99399.46;;;14.80;68.27
62703;BME280;66022;50.448;18.122;2023-04-20T18:01:47;99400.41;;;14.73;68.60
62703;BME280;66022;50.448;18.122;2023-04-20T18:06:04;99400.81;;;14.64;67.35
62703;BME280;66022;50.448;18.122;2023-04-20T18:10:15;99400.99;;;14.57;69.21
62703;BME280;66022;50.448;18.122;2023-04-20T18:14:29;99401.79;;;14.50;69.76
62703;BME280;66022;50.448;18.122;2023-04-20T18:18:43;99403.21;;;14.42;69.46
62703;BME280;66022;50.448;18.122;2023-04-20T18:22:57;99405.44;;;14.35;70.14
62703;BME280;66022;50.448;18.122;2023-04-20T18:27:11;99408.24;;;14.28;70.45
62703;BME280;66022;50.448;18.122;2023-04-20T18:31:25;99412.28;;;14.21;70.88
62703;BME280;66022;50.448;18.122;2023-04-20T18:35:39;99414.74;;;14.13;71.69
62703;BME280;66022;50.448;18.122;2023-04-20T18:39:53;99416.38;;;14.05;72.59
62703;BME280;66022;50.448;18.122;2023-04-20T18:44:07;99417.35;;;13.97;73.05
62703;BME280;66022;50.448;18.122;2023-04-20T18:48:21;99420.78;;;13.87;73.79
62703;BME280;66022;50.448;18.122;2023-04-20T18:52:35;99423.91;;;13.79;74.30
62703;BME280;66022;50.448;18.122;2023-04-20T18:56:49;99426.19;;;13.71;74.78
62703;BME280;66022;50.448;18.122;2023-04-20T19:01:03;99427.65;;;13.65;74.77
62703;BME280;66022;50.448;18.122;2023-04-20T19:05:17;99429.27;;;13.59;74.69
62703;BME280;66022;50.448;18.122;2023-04-20T19:09:31;99429.77;;;13.54;74.79
62703;BME280;66022;50.448;18.122;2023-04-20T19:13:48;99429.81;;;13.50;75.07
62703;BME280;66022;50.448;18.122;2023-04-20T19:17:59;99429.94;;;13.46;75.53
62703;BME280;66022;50.448;18.122;2023-04-20T19:22:13;99429.77;;;13.44;75.39
62703;BME280;66022;50.448;18.122;2023-04-20T19:26:27;99429.41;;;13.39;75.44
62703;BME280;66022;50.448;18.122;2023-04-20T19:30:41;99428.47;;;13.37;75.33
62703;BME280;66022;50.448;18.122;2023-04-20T19:34:55;99427.44;;;13.34;75.40
62703;BME280;66022;50.448;18.122;2023-04-20T19:39:09;99427.72;;;13.31;75.57
62703;BME280;66022;50.448;18.122;2023-04-20T19:43:23;99427.75;;;13.29;75.40
62703;BME280;66022;50.448;18.122;2023-04-20T19:47:37;99427.86;;;13.25;75.48
62703;BME280;66022;50.448;18.122;2023-04-20T19:51:51;99428.16;;;13.23;75.18
62703;BME280;66022;50.448;18.122;2023-04-20T19:56:05;99427.78;;;13.19;74.92
62703;BME280;66022;50.448;18.122;2023-04-20T20:00:19;99427.51;;;13.17;75.13
62703;BME280;66022;50.448;18.122;2023-04-20T20:04:33;99427.31;;;13.15;75.43
62703;BME280;66022;50.448;18.122;2023-04-20T20:08:47;99426.14;;;13.12;75.37
62703;BME280;66022;50.448;18.122;2023-04-20T20:13:01;99425.56;;;13.12;75.54
62703;BME280;66022;50.448;18.122;2023-04-20T20:17:15;99424.42;;;13.10;75.69
62703;BME280;66022;50.448;18.122;2023-04-20T20:21:30;99423.10;;;13.09;75.76
62703;BME280;66022;50.448;18.122;2023-04-20T20:25:43;99421.79;;;13.08;75.97
62703;BME280;66022;50.448;18.122;2023-04-20T20:29:57;99419.81;;;13.07;75.74
62703;BME280;66022;50.448;18.122;2023-04-20T20:34:11;99418.56;;;13.06;75.90
62703;BME280;66022;50.448;18.122;2023-04-20T20:38:25;99416.99;;;13.02;75.77
62703;BME280;66022;50.448;18.122;2023-04-20T20:42:39;99417.27;;;13.01;75.70
62703;BME280;66022;50.448;18.122;2023-04-20T20:46:53;99418.59;;;12.99;75.80
62703;BME280;66022;50.448;18.122;2023-04-20T20:51:07;99418.11;;;12.99;75.56
62703;BME280;66022;50.448;18.122;2023-04-20T20:55:21;99416.89;;;12.97;76.06
62703;BME280;66022;50.448;18.122;2023-04-20T20:59:35;99418.03;;;12.95;76.24
62703;BME280;66022;50.448;18.122;2023-04-20T21:03:49;99419.64;;;12.92;75.75
62703;BME280;66022;50.448;18.122;2023-04-20T21:08:03;99420.75;;;12.89;75.65
62703;BME280;66022;50.448;18.122;2023-04-20T21:12:17;99422.05;;;12.87;75.07
62703;BME280;66022;50.448;18.122;2023-04-20T21:16:31;99422.17;;;12.84;74.70
62703;BME280;66022;50.448;18.122;2023-04-20T21:20:45;99422.58;;;12.83;75.28
62703;BME280;66022;50.448;18.122;2023-04-20T21:24:59;99422.22;;;12.82;75.64
62703;BME280;66022;50.448;18.122;2023-04-20T21:29:13;99422.16;;;12.81;74.90
62703;BME280;66022;50.448;18.122;2023-04-20T21:33:27;99422.49;;;12.81;75.18
62703;BME280;66022;50.448;18.122;2023-04-20T21:37:41;99421.93;;;12.80;74.11
62703;BME280;66022;50.448;18.122;2023-04-20T21:41:55;99420.83;;;12.80;73.94
62703;BME280;66022;50.448;18.122;2023-04-20T21:46:12;99420.03;;;12.79;72.23
62703;BME280;66022;50.448;18.122;2023-04-20T21:50:23;99419.81;;;12.80;71.95
62703;BME280;66022;50.448;18.122;2023-04-20T21:54:37;99419.51;;;12.82;71.12
62703;BME280;66022;50.448;18.122;2023-04-20T21:58:51;99418.75;;;12.82;70.42
62703;BME280;66022;50.448;18.122;2023-04-20T22:03:05;99419.17;;;12.85;69.32
62703;BME280;66022;50.448;18.122;2023-04-20T22:07:19;99421.59;;;12.86;68.37
62703;BME280;66022;50.448;18.122;2023-04-20T22:11:33;99420.39;;;12.89;69.40
62703;BME280;66022;50.448;18.122;2023-04-20T22:15:47;99419.26;;;12.90;69.67
62703;BME280;66022;50.448;18.122;2023-04-20T22:20:01;99417.24;;;12.91;69.73
62703;BME280;66022;50.448;18.122;2023-04-20T22:24:15;99414.56;;;12.93;69.31
62703;BME280;66022;50.448;18.122;2023-04-20T22:28:29;99412.39;;;12.92;69.32
62703;BME280;66022;50.448;18.122;2023-04-20T22:32:43;99410.83;;;12.94;68.33
62703;BME280;66022;50.448;18.122;2023-04-20T22:36:57;99409.91;;;12.93;68.29
62703;BME280;66022;50.448;18.122;2023-04-20T22:41:11;99409.60;;;12.95;69.22
62703;BME280;66022;50.448;18.122;2023-04-20T22:45:25;99408.59;;;12.95;68.95
62703;BME280;66022;50.448;18.122;2023-04-20T22:49:39;99408.42;;;12.95;68.77
62703;BME280;66022;50.448;18.122;2023-04-20T22:53:53;99407.84;;;12.95;69.66
62703;BME280;66022;50.448;18.122;2023-04-20T22:58:07;99406.45;;;12.94;69.09
62703;BME280;66022;50.448;18.122;2023-04-20T23:02:21;99404.80;;;12.94;68.85
62703;BME280;66022;50.448;18.122;2023-04-20T23:06:35;99403.43;;;12.93;69.75
62703;BME280;66022;50.448;18.122;2023-04-20T23:10:49;99402.12;;;12.94;69.77
62703;BME280;66022;50.448;18.122;2023-04-20T23:15:03;99402.15;;;12.93;69.20
62703;BME280;66022;50.448;18.122;2023-04-20T23:19:17;99401.65;;;12.90;69.24
62703;BME280;66022;50.448;18.122;2023-04-20T23:23:31;99402.22;;;12.88;68.86
62703;BME280;66022;50.448;18.122;2023-04-20T23:27:45;99401.09;;;12.84;69.52
62703;BME280;66022;50.448;18.122;2023-04-20T23:31:59;99400.35;;;12.80;68.90
62703;BME280;66022;50.448;18.122;2023-04-20T23:36:13;99399.42;;;12.74;67.77